Time;durP1;ratioP1;P1;durP2;ratioP2;P2;SDS_P1;SDS_P2;PMS_P1;PMS_P2;Temp;Humidity;BMP_temperature;BMP_pressure;BME280_temperature;BME280_humidity;BME280_pressure;Samples;Min_cycle;Max_cycle;Signal;HPM_P1;HPM_P2
2022/08/03 00:01:39;;;;;;;0.00;0.00;;;;;;;;;;5053967;28;20405;-86
2022/08/03 00:04:06;;;;;;;0.00;0.00;;;;;;;;;;5060882;28;20063;-86
2022/08/03 00:06:33;;;;;;;0.00;0.00;;;;;;;;;;5057503;28;20051;-86
2022/08/03 00:08:59;;;;;;;0.03;0.03;;;;;;;;;;5050794;28;20045;-86
2022/08/03 00:11:25;;;;;;;0.05;0.05;;;;;;;;;;5074443;28;20069;-86
2022/08/03 00:13:51;;;;;;;0.10;0.10;;;;;;;;;;5057311;28;20066;-85
2022/08/03 00:16:17;;;;;;;0.10;0.10;;;;;;;;;;5057844;28;20476;-84
2022/08/03 00:18:44;;;;;;;0.10;0.10;;;;;;;;;;5057259;28;20036;-85
2022/08/03 00:21:10;;;;;;;0.10;0.10;;;;;;;;;;5054800;28;20439;-84
2022/08/03 00:23:36;;;;;;;0.10;0.10;;;;;;;;;;5052339;28;20036;-84
2022/08/03 00:26:02;;;;;;;0.10;0.10;;;;;;;;;;5074316;28;20127;-84
2022/08/03 00:28:28;;;;;;;0.00;0.00;;;;;;;;;;5057319;28;20048;-85
2022/08/03 00:30:57;;;;;;;0.05;0.05;;;;;;;;;;5074063;28;20043;-84
2022/08/03 00:33:23;;;;;;;0.10;0.10;;;;;;;;;;5057543;28;20067;-86
2022/08/03 00:35:49;;;;;;;0.00;0.00;;;;;;;;;;5073948;28;20409;-85
2022/08/03 00:38:15;;;;;;;0.05;0.05;;;;;;;;;;5057474;28;20044;-84
2022/08/03 00:40:41;;;;;;;0.10;0.10;;;;;;;;;;5058660;28;20040;-84
2022/08/03 00:43:08;;;;;;;0.10;0.10;;;;;;;;;;5078131;28;20040;-85
2022/08/03 00:45:36;;;;;;;0.10;0.10;;;;;;;;;;5056137;28;20036;-83
2022/08/03 00:48:03;;;;;;;0.00;0.00;;;;;;;;;;5077773;28;20044;-85
2022/08/03 00:50:30;;;;;;;0.10;0.10;;;;;;;;;;5077127;28;20454;-85
2022/08/03 00:52:58;;;;;;;0.00;0.00;;;;;;;;;;5077732;28;20686;-84
2022/08/03 00:55:25;;;;;;;0.10;0.10;;;;;;;;;;5060417;28;20085;-84
2022/08/03 00:57:51;;;;;;;0.00;0.00;;;;;;;;;;5077414;28;20050;-85
2022/08/03 01:00:18;;;;;;;0.03;0.03;;;;;;;;;;5077497;28;20482;-85
2022/08/03 01:02:44;;;;;;;0.08;0.08;;;;;;;;;;5077443;28;20456;-85
2022/08/03 01:05:11;;;;;;;0.10;0.10;;;;;;;;;;5077091;28;20036;-85
2022/08/03 01:07:37;;;;;;;0.10;0.10;;;;;;;;;;5077031;28;20397;-85
2022/08/03 01:10:08;;;;;;;0.00;0.00;;;;;;;;;;5060501;28;20100;-85
2022/08/03 01:12:38;;;;;;;0.00;0.00;;;;;;;;;;5060198;28;20518;-85
2022/08/03 01:15:25;;;;;;;0.00;0.00;;;;;;;;;;5059658;28;20143;-85
2022/08/03 01:17:56;;;;;;;0.00;0.00;;;;;;;;;;5060355;28;20601;-85
2022/08/03 01:20:25;;;;;;;0.10;0.10;;;;;;;;;;5060363;28;20101;-85
2022/08/03 01:22:57;;;;;;;0.00;0.00;;;;;;;;;;5076586;28;20401;-84
2022/08/03 01:25:46;;;;;;;0.10;0.10;;;;;;;;;;5076405;28;20071;-85
2022/08/03 01:28:30;;;;;;;0.00;0.00;;;;;;;;;;5052250;28;20081;-85
2022/08/03 01:30:58;;;;;;;0.03;0.03;;;;;;;;;;5059107;28;20040;-85
2022/08/03 01:33:27;;;;;;;0.10;0.10;;;;;;;;;;5060185;28;20046;-85
2022/08/03 01:36:04;;;;;;;0.10;0.10;;;;;;;;;;5076015;28;20124;-86
2022/08/03 01:38:35;;;;;;;0.03;0.03;;;;;;;;;;5059677;28;20085;-85
2022/08/03 01:41:07;;;;;;;0.00;0.00;;;;;;;;;;5059700;28;20036;-85
2022/08/03 01:43:34;;;;;;;0.10;0.10;;;;;;;;;;5059709;28;20069;-86
2022/08/03 01:46:01;;;;;;;0.20;0.20;;;;;;;;;;5076221;28;20483;-85
2022/08/03 01:48:27;;;;;;;0.00;0.00;;;;;;;;;;5076401;28;20089;-84
2022/08/03 01:50:55;;;;;;;0.10;0.10;;;;;;;;;;5076027;28;20039;-85
2022/08/03 01:53:21;;;;;;;0.03;0.03;;;;;;;;;;5076112;28;20044;-86
2022/08/03 01:55:49;;;;;;;0.10;0.10;;;;;;;;;;5056553;28;20038;-86
2022/08/03 01:58:16;;;;;;;0.10;0.10;;;;;;;;;;5059392;28;20044;-85
2022/08/03 02:00:43;;;;;;;0.08;0.08;;;;;;;;;;5034614;28;20044;-85
2022/08/03 02:03:11;;;;;;;0.00;0.00;;;;;;;;;;5076033;28;20036;-85
2022/08/03 02:05:38;;;;;;;0.05;0.05;;;;;;;;;;5050873;28;20128;-85
2022/08/03 02:08:06;;;;;;;0.10;0.10;;;;;;;;;;5072991;28;20041;-85
2022/08/03 02:10:32;;;;;;;0.13;0.13;;;;;;;;;;5071030;28;20051;-85
2022/08/03 02:13:00;;;;;;;0.00;0.00;;;;;;;;;;5050665;28;20098;-86
2022/08/03 02:15:27;;;;;;;0.10;0.10;;;;;;;;;;5058951;28;20124;-86
2022/08/03 02:17:54;;;;;;;0.00;0.00;;;;;;;;;;5075987;28;20117;-85
2022/08/03 02:20:21;;;;;;;0.10;0.10;;;;;;;;;;5058939;28;20178;-85
2022/08/03 02:22:47;;;;;;;0.10;0.10;;;;;;;;;;5058985;28;20032;-85
2022/08/03 02:25:14;;;;;;;0.10;0.10;;;;;;;;;;5076059;28;20378;-85
2022/08/03 02:27:44;;;;;;;0.03;0.03;;;;;;;;;;5075493;28;20107;-86
2022/08/03 02:30:11;;;;;;;0.10;0.10;;;;;;;;;;5058756;28;20047;-85
2022/08/03 02:32:42;;;;;;;0.05;0.05;;;;;;;;;;5050991;28;20048;-85
2022/08/03 02:35:12;;;;;;;0.00;0.00;;;;;;;;;;5058296;28;20036;-85
2022/08/03 02:37:43;;;;;;;0.10;0.10;;;;;;;;;;5058648;28;20079;-84
2022/08/03 02:40:09;;;;;;;0.10;0.10;;;;;;;;;;5058672;28;20161;-85
2022/08/03 02:42:37;;;;;;;0.10;0.10;;;;;;;;;;5059036;28;20496;-84
2022/08/03 02:45:06;;;;;;;0.10;0.10;;;;;;;;;;5058374;28;20050;-85
2022/08/03 02:47:33;;;;;;;0.10;0.10;;;;;;;;;;5075327;28;20043;-85
2022/08/03 02:49:59;;;;;;;0.15;0.15;;;;;;;;;;5058411;28;20044;-85
2022/08/03 02:52:27;;;;;;;0.10;0.10;;;;;;;;;;5058399;28;20040;-85
2022/08/03 02:55:01;;;;;;;0.10;0.10;;;;;;;;;;5058140;28;20405;-85
2022/08/03 02:57:27;;;;;;;;;;;;;;;;;;5058618;28;20096;-85
2022/08/03 02:59:55;;;;;;;0.20;0.20;;;;;;;;;;5074885;28;19999;-86
2022/08/03 03:02:21;;;;;;;0.10;0.10;;;;;;;;;;5058264;28;20035;-86
2022/08/03 03:04:49;;;;;;;0.10;0.10;;;;;;;;;;5074191;28;20044;-86
2022/08/03 03:07:16;;;;;;;0.00;0.00;;;;;;;;;;5058071;28;20127;-86
2022/08/03 03:09:42;;;;;;;0.05;0.05;;;;;;;;;;5055163;28;20045;-85
2022/08/03 03:12:09;;;;;;;0.20;0.20;;;;;;;;;;5058296;28;20047;-86
2022/08/03 03:14:36;;;;;;;0.32;0.32;;;;;;;;;;5074717;28;20058;-85
2022/08/03 03:17:02;;;;;;;0.00;0.00;;;;;;;;;;5075113;28;20397;-85
2022/08/03 03:19:29;;;;;;;0.10;0.10;;;;;;;;;;5058311;28;20093;-87
2022/08/03 03:21:55;;;;;;;0.10;0.10;;;;;;;;;;5058503;28;20032;-85
2022/08/03 03:24:21;;;;;;;0.08;0.08;;;;;;;;;;5041364;28;20051;-85
2022/08/03 03:26:47;;;;;;;0.10;0.10;;;;;;;;;;5075113;28;20044;-86
2022/08/03 03:29:14;;;;;;;0.10;0.10;;;;;;;;;;5059882;28;20110;-84
2022/08/03 03:31:40;;;;;;;0.00;0.00;;;;;;;;;;5074527;28;20032;-84
2022/08/03 03:34:06;;;;;;;0.05;0.05;;;;;;;;;;5074451;28;20035;-84
2022/08/03 03:36:32;;;;;;;0.05;0.05;;;;;;;;;;5074225;28;20051;-84
2022/08/03 03:38:58;;;;;;;0.10;0.10;;;;;;;;;;5058509;28;20040;-84
2022/08/03 03:41:25;;;;;;;0.10;0.10;;;;;;;;;;5058143;28;20036;-85
2022/08/03 03:43:51;;;;;;;0.10;0.10;;;;;;;;;;5057719;28;20110;-85
2022/08/03 03:46:17;;;;;;;0.08;0.08;;;;;;;;;;5058455;28;20181;-85
2022/08/03 03:48:44;;;;;;;0.10;0.10;;;;;;;;;;5058236;28;20432;-84
2022/08/03 03:51:10;;;;;;;0.00;0.00;;;;;;;;;;5054543;28;20115;-84
2022/08/03 03:53:36;;;;;;;0.03;0.03;;;;;;;;;;5054096;28;20110;-86
2022/08/03 03:56:02;;;;;;;0.10;0.10;;;;;;;;;;5074323;28;20052;-86
2022/08/03 03:58:28;;;;;;;0.00;0.00;;;;;;;;;;5057982;28;20047;-85
2022/08/03 04:00:54;;;;;;;0.05;0.05;;;;;;;;;;5053203;28;20032;-85
2022/08/03 04:03:20;;;;;;;0.00;0.00;;;;;;;;;;5052391;28;20059;-86
2022/08/03 04:11:34;;;;;;;0.10;0.10;;;;;;;;;;5070218;28;20076;-86
2022/08/03 04:14:03;;;;;;;0.10;0.10;;;;;;;;;;5073920;28;20097;-86
2022/08/03 04:16:34;;;;;;;0.00;0.00;;;;;;;;;;5058826;28;20044;-85
2022/08/03 04:19:01;;;;;;;0.10;0.10;;;;;;;;;;5061353;28;20401;-86
2022/08/03 04:21:30;;;;;;;0.10;0.10;;;;;;;;;;5062164;28;20539;-86
2022/08/03 04:23:58;;;;;;;0.03;0.03;;;;;;;;;;5062342;28;20032;-86
2022/08/03 04:26:26;;;;;;;0.20;0.20;;;;;;;;;;5061714;28;20040;-87
2022/08/03 04:28:53;;;;;;;0.00;0.00;;;;;;;;;;5078871;28;20036;-86
2022/08/03 04:31:23;;;;;;;0.10;0.10;;;;;;;;;;5057512;28;20063;-86
2022/08/03 04:33:50;;;;;;;0.08;0.08;;;;;;;;;;5058552;28;20032;-86
2022/08/03 04:36:19;;;;;;;0.10;0.10;;;;;;;;;;5078427;28;20040;-86
2022/08/03 04:39:03;;;;;;;0.25;0.25;;;;;;;;;;5062340;28;20568;-86
2022/08/03 04:41:30;;;;;;;0.10;0.10;;;;;;;;;;5061996;28;20118;-86
2022/08/03 04:43:57;;;;;;;0.15;0.15;;;;;;;;;;5061569;28;20636;-86
2022/08/03 04:46:27;;;;;;;0.00;0.00;;;;;;;;;;5062261;28;20374;-86
2022/08/03 04:48:54;;;;;;;0.00;0.00;;;;;;;;;;5061935;28;20097;-86
2022/08/03 04:51:20;;;;;;;0.10;0.10;;;;;;;;;;5078528;28;20055;-85
2022/08/03 04:53:46;;;;;;;0.10;0.10;;;;;;;;;;5059781;28;20076;-85
2022/08/03 04:56:12;;;;;;;0.00;0.00;;;;;;;;;;5061025;28;20447;-85
2022/08/03 04:58:38;;;;;;;0.10;0.10;;;;;;;;;;5060740;28;20044;-86
2022/08/03 05:01:04;;;;;;;0.00;0.00;;;;;;;;;;5042138;28;20032;-85
2022/08/03 05:03:31;;;;;;;0.00;0.00;;;;;;;;;;5061532;28;20043;-86
2022/08/03 05:05:57;;;;;;;0.10;0.10;;;;;;;;;;5060489;28;20051;-85
2022/08/03 05:08:23;;;;;;;0.00;0.00;;;;;;;;;;5060560;28;20119;-83
2022/08/03 05:10:49;;;;;;;0.00;0.00;;;;;;;;;;5058070;28;20117;-85
2022/08/03 05:13:15;;;;;;;0.10;0.10;;;;;;;;;;5077316;28;20458;-84
2022/08/03 05:15:41;;;;;;;0.20;0.20;;;;;;;;;;5058501;28;20040;-84
2022/08/03 05:18:07;;;;;;;0.00;0.00;;;;;;;;;;5060515;28;20044;-85
2022/08/03 05:20:33;;;;;;;0.10;0.10;;;;;;;;;;5060468;28;20032;-84
2022/08/03 05:23:00;;;;;;;0.08;0.08;;;;;;;;;;5057460;28;20078;-84
2022/08/03 05:25:27;;;;;;;0.03;0.03;;;;;;;;;;5060179;28;20134;-85
2022/08/03 05:27:53;;;;;;;0.03;0.03;;;;;;;;;;5076497;28;20040;-84
2022/08/03 05:30:19;;;;;;;0.10;0.10;;;;;;;;;;5060432;28;20043;-84
2022/08/03 05:32:45;;;;;;;0.00;0.00;;;;;;;;;;5059896;28;20040;-84
2022/08/03 05:35:11;;;;;;;0.10;0.10;;;;;;;;;;5057749;28;20505;-85
2022/08/03 05:37:37;;;;;;;0.03;0.03;;;;;;;;;;5059579;28;20123;-85
2022/08/03 05:40:04;;;;;;;0.10;0.10;;;;;;;;;;5057901;28;20154;-85
2022/08/03 05:42:30;;;;;;;0.10;0.10;;;;;;;;;;5053843;28;20631;-84
2022/08/03 05:44:56;;;;;;;0.00;0.00;;;;;;;;;;5059438;28;20135;-85
2022/08/03 05:47:22;;;;;;;0.08;0.08;;;;;;;;;;5076584;28;20067;-86
2022/08/03 05:49:48;;;;;;;0.00;0.00;;;;;;;;;;5058123;28;20046;-85
2022/08/03 05:52:14;;;;;;;0.00;0.00;;;;;;;;;;5060481;28;20043;-86
2022/08/03 05:54:40;;;;;;;0.00;0.00;;;;;;;;;;5059783;28;20060;-85
2022/08/03 05:57:06;;;;;;;0.10;0.10;;;;;;;;;;5059689;28;20048;-85
2022/08/03 05:59:32;;;;;;;0.20;0.20;;;;;;;;;;5059587;28;20032;-85
2022/08/03 06:01:58;;;;;;;0.10;0.10;;;;;;;;;;5058241;28;20042;-85
2022/08/03 06:04:24;;;;;;;0.00;0.00;;;;;;;;;;5059746;28;20040;-85
2022/08/03 06:06:51;;;;;;;0.00;0.00;;;;;;;;;;5059539;28;20069;-85
2022/08/03 06:09:17;;;;;;;0.10;0.10;;;;;;;;;;5059836;28;20040;-84
2022/08/03 06:11:43;;;;;;;0.20;0.20;;;;;;;;;;5059701;28;20055;-83
2022/08/03 06:14:09;;;;;;;0.00;0.00;;;;;;;;;;5058792;28;20055;-83
2022/08/03 06:16:35;;;;;;;0.10;0.10;;;;;;;;;;5075982;28;20447;-83
2022/08/03 06:19:01;;;;;;;0.00;0.00;;;;;;;;;;5058967;28;20032;-84
2022/08/03 06:21:28;;;;;;;0.00;0.00;;;;;;;;;;5064831;28;20039;-84
2022/08/03 06:23:54;;;;;;;0.10;0.10;;;;;;;;;;5058232;28;20028;-83
2022/08/03 06:26:19;;;;;;;0.00;0.00;;;;;;;;;;5059144;28;20046;-83
2022/08/03 06:28:46;;;;;;;0.10;0.10;;;;;;;;;;5076752;28;20036;-84
2022/08/03 06:31:12;;;;;;;0.00;0.00;;;;;;;;;;5055974;28;20071;-82
2022/08/03 06:33:38;;;;;;;0.03;0.03;;;;;;;;;;5052636;28;20079;-83
2022/08/03 06:36:04;;;;;;;0.03;0.03;;;;;;;;;;5075094;28;20064;-84
2022/08/03 06:38:30;;;;;;;0.00;0.00;;;;;;;;;;5058224;28;20397;-85
2022/08/03 06:40:56;;;;;;;0.10;0.10;;;;;;;;;;5076436;28;20032;-84
2022/08/03 06:43:22;;;;;;;0.00;0.00;;;;;;;;;;5076187;28;20426;-84
2022/08/03 06:45:48;;;;;;;0.10;0.10;;;;;;;;;;5059296;28;20131;-85
2022/08/03 06:48:14;;;;;;;0.00;0.00;;;;;;;;;;5059317;28;20088;-85
2022/08/03 06:50:40;;;;;;;0.03;0.03;;;;;;;;;;5075911;28;20043;-84
2022/08/03 06:53:08;;;;;;;0.10;0.10;;;;;;;;;;5058830;28;20075;-84
2022/08/03 06:55:34;;;;;;;0.03;0.03;;;;;;;;;;5074424;28;20047;-84
2022/08/03 06:58:00;;;;;;;0.05;0.05;;;;;;;;;;5058790;28;20035;-85
2022/08/03 07:00:28;;;;;;;0.10;0.10;;;;;;;;;;5056843;28;20050;-84
2022/08/03 07:02:54;;;;;;;0.00;0.00;;;;;;;;;;5055909;28;20067;-84
2022/08/03 07:05:20;;;;;;;0.10;0.10;;;;;;;;;;5069232;28;20090;-84
2022/08/03 07:07:46;;;;;;;0.10;0.10;;;;;;;;;;5048856;28;20054;-84
2022/08/03 07:10:12;;;;;;;0.05;0.05;;;;;;;;;;5050149;28;20040;-84
2022/08/03 07:12:39;;;;;;;0.00;0.00;;;;;;;;;;5058647;28;20593;-85
2022/08/03 07:15:05;;;;;;;0.00;0.00;;;;;;;;;;5058338;28;20039;-85
2022/08/03 07:17:35;;;;;;;0.00;0.00;;;;;;;;;;5058074;28;20036;-84
2022/08/03 07:20:03;;;;;;;0.10;0.10;;;;;;;;;;5055618;28;20039;-84
2022/08/03 07:22:29;;;;;;;0.00;0.00;;;;;;;;;;5054796;28;20044;-85
2022/08/03 07:24:55;;;;;;;0.00;0.00;;;;;;;;;;5074949;28;20145;-84
2022/08/03 07:27:21;;;;;;;0.00;0.00;;;;;;;;;;5058502;28;20044;-85
2022/08/03 07:29:47;;;;;;;0.10;0.10;;;;;;;;;;5058066;28;20047;-84
2022/08/03 07:32:13;;;;;;;0.08;0.08;;;;;;;;;;5057123;28;20032;-85
2022/08/03 07:34:39;;;;;;;0.10;0.10;;;;;;;;;;5074841;28;20508;-84
2022/08/03 07:37:06;;;;;;;0.00;0.00;;;;;;;;;;5057773;28;20108;-82
2022/08/03 07:39:32;;;;;;;0.00;0.00;;;;;;;;;;5057786;28;20036;-84
2022/08/03 07:41:58;;;;;;;0.00;0.00;;;;;;;;;;5067020;28;20503;-84
2022/08/03 07:44:24;;;;;;;0.03;0.03;;;;;;;;;;5074637;28;20040;-84
2022/08/03 07:46:50;;;;;;;0.05;0.05;;;;;;;;;;5054021;28;20431;-84
2022/08/03 07:49:16;;;;;;;0.10;0.10;;;;;;;;;;5059607;28;20036;-89
2022/08/03 07:51:42;;;;;;;0.05;0.05;;;;;;;;;;5060581;28;20140;-88
2022/08/03 07:54:11;;;;;;;0.10;0.10;;;;;;;;;;5059928;28;20064;-89
2022/08/03 07:56:37;;;;;;;0.00;0.00;;;;;;;;;;5054253;28;20258;-89
2022/08/03 07:59:03;;;;;;;0.10;0.10;;;;;;;;;;5081408;28;20039;-87
2022/08/03 08:01:31;;;;;;;0.08;0.08;;;;;;;;;;5067925;28;20036;-90
2022/08/03 08:03:57;;;;;;;0.10;0.10;;;;;;;;;;5067264;28;20039;-89
2022/08/03 08:06:23;;;;;;;0.00;0.00;;;;;;;;;;5066109;28;20047;-90
2022/08/03 08:08:49;;;;;;;0.00;0.00;;;;;;;;;;5064802;28;20036;-91
2022/08/03 08:11:15;;;;;;;0.10;0.10;;;;;;;;;;5067580;28;20100;-90
2022/08/03 08:13:41;;;;;;;0.05;0.05;;;;;;;;;;5085291;28;20090;-91
2022/08/03 08:16:07;;;;;;;0.10;0.10;;;;;;;;;;5066476;28;20040;-90
2022/08/03 08:18:33;;;;;;;0.05;0.05;;;;;;;;;;5078420;28;20112;-89
2022/08/03 08:21:00;;;;;;;0.10;0.10;;;;;;;;;;5061507;28;20068;-89
2022/08/03 08:23:29;;;;;;;0.00;0.00;;;;;;;;;;5062097;28;20036;-95
2022/08/03 08:25:55;;;;;;;0.10;0.10;;;;;;;;;;5043085;28;20047;-88
2022/08/03 08:28:21;;;;;;;0.10;0.10;;;;;;;;;;5057047;28;20052;-87
2022/08/03 08:30:48;;;;;;;0.13;0.13;;;;;;;;;;5062980;28;20119;-87
2022/08/03 08:33:14;;;;;;;0.10;0.10;;;;;;;;;;5066119;28;20035;-88
2022/08/03 08:35:42;;;;;;;0.00;0.00;;;;;;;;;;5058297;28;20047;-91
2022/08/03 08:38:08;;;;;;;0.10;0.10;;;;;;;;;;5063012;28;20381;-88
2022/08/03 08:40:34;;;;;;;0.00;0.00;;;;;;;;;;5063666;28;20114;-88
2022/08/03 08:43:14;;;;;;;0.10;0.10;;;;;;;;;;5050351;28;20494;-88
2022/08/03 08:45:41;;;;;;;0.10;0.10;;;;;;;;;;5062407;28;20075;-88
2022/08/03 08:48:07;;;;;;;0.10;0.10;;;;;;;;;;5053562;28;20075;-88
2022/08/03 08:50:33;;;;;;;0.00;0.00;;;;;;;;;;5057243;28;20039;-87
2022/08/03 08:53:02;;;;;;;0.08;0.08;;;;;;;;;;5054093;28;20406;-87
2022/08/03 08:55:29;;;;;;;0.05;0.05;;;;;;;;;;5047303;28;20093;-88
2022/08/03 08:57:58;;;;;;;0.00;0.00;;;;;;;;;;5060803;28;20079;-92
2022/08/03 09:00:24;;;;;;;0.10;0.10;;;;;;;;;;5079051;28;20048;-89
2022/08/03 09:02:50;;;;;;;0.00;0.00;;;;;;;;;;5058881;28;20047;-89
2022/08/03 09:05:17;;;;;;;0.00;0.00;;;;;;;;;;5045213;28;20076;-87
2022/08/03 09:07:44;;;;;;;0.10;0.10;;;;;;;;;;5062401;28;20549;-88
2022/08/03 09:10:11;;;;;;;0.00;0.00;;;;;;;;;;5055849;28;20036;-87
2022/08/03 09:12:39;;;;;;;0.00;0.00;;;;;;;;;;5061766;28;20070;-88
2022/08/03 09:15:24;;;;;;;0.00;0.00;;;;;;;;;;5054993;28;20066;-86
2022/08/03 09:17:50;;;;;;;0.10;0.10;;;;;;;;;;5077619;28;20081;-87
2022/08/03 09:20:17;;;;;;;0.10;0.10;;;;;;;;;;5061846;28;20046;-88
2022/08/03 09:22:58;;;;;;;0.00;0.00;;;;;;;;;;5054711;28;20490;-88
2022/08/03 09:25:38;;;;;;;0.00;0.00;;;;;;;;;;5056470;28;20091;-88
2022/08/03 09:28:08;;;;;;;0.00;0.00;;;;;;;;;;5061851;28;20042;-87
2022/08/03 09:30:34;;;;;;;0.10;0.10;;;;;;;;;;5062509;28;20044;-88
2022/08/03 09:33:01;;;;;;;0.00;0.00;;;;;;;;;;5054406;28;20101;-88
2022/08/03 09:35:31;;;;;;;0.00;0.00;;;;;;;;;;5048235;28;20132;-89
2022/08/03 09:38:10;;;;;;;0.00;0.00;;;;;;;;;;5075071;28;20116;-88
2022/08/03 09:40:37;;;;;;;0.00;0.00;;;;;;;;;;5060299;28;20044;-87
2022/08/03 09:43:03;;;;;;;0.10;0.10;;;;;;;;;;5049244;28;20041;-92
2022/08/03 09:45:29;;;;;;;0.08;0.08;;;;;;;;;;5057173;28;20058;-87
2022/08/03 09:47:58;;;;;;;0.00;0.00;;;;;;;;;;5045831;28;20076;-87
2022/08/03 09:50:24;;;;;;;0.00;0.00;;;;;;;;;;5052669;28;20495;-89
2022/08/03 09:52:50;;;;;;;0.00;0.00;;;;;;;;;;5059113;28;20679;-88
2022/08/03 09:55:19;;;;;;;0.10;0.10;;;;;;;;;;5059545;28;20048;-87
2022/08/03 09:57:47;;;;;;;0.00;0.00;;;;;;;;;;5061565;28;20123;-90
2022/08/03 10:00:14;;;;;;;0.10;0.10;;;;;;;;;;5043966;28;20035;-90
2022/08/03 10:02:41;;;;;;;0.03;0.03;;;;;;;;;;5060821;28;20047;-91
2022/08/03 10:05:11;;;;;;;0.10;0.10;;;;;;;;;;5050460;28;20071;-90
2022/08/03 10:07:47;;;;;;;0.00;0.00;;;;;;;;;;5056638;28;20040;-90
2022/08/03 10:10:13;;;;;;;0.10;0.10;;;;;;;;;;5059622;28;20151;-87
2022/08/03 10:13:03;;;;;;;0.10;0.10;;;;;;;;;;5051831;28;20071;-88
2022/08/03 10:15:29;;;;;;;0.03;0.03;;;;;;;;;;5052488;28;20046;-87
2022/08/03 10:17:56;;;;;;;0.00;0.00;;;;;;;;;;5051729;28;20039;-92
2022/08/03 10:20:36;;;;;;;0.00;0.00;;;;;;;;;;5076889;28;20048;-92
2022/08/03 10:23:05;;;;;;;0.00;0.00;;;;;;;;;;5041233;28;20402;-86
2022/08/03 10:25:32;;;;;;;0.00;0.00;;;;;;;;;;5049342;28;20044;-88
2022/08/03 10:28:21;;;;;;;0.10;0.10;;;;;;;;;;5065487;28;20470;-87
2022/08/03 10:30:49;;;;;;;0.00;0.00;;;;;;;;;;5056021;28;20052;-87
2022/08/03 10:33:24;;;;;;;0.10;0.10;;;;;;;;;;5049283;28;20041;-87
2022/08/03 10:35:52;;;;;;;0.00;0.00;;;;;;;;;;5055738;28;20051;-89
2022/08/03 10:38:21;;;;;;;0.08;0.08;;;;;;;;;;5056802;28;20101;-88
2022/08/03 10:40:50;;;;;;;0.00;0.00;;;;;;;;;;5056474;28;20039;-88
2022/08/03 10:43:26;;;;;;;0.10;0.10;;;;;;;;;;5070208;28;20074;-88
2022/08/03 10:45:53;;;;;;;0.00;0.00;;;;;;;;;;5049623;28;20041;-88
2022/08/03 10:48:19;;;;;;;0.10;0.10;;;;;;;;;;5055572;28;20382;-86
2022/08/03 10:50:58;;;;;;;0.10;0.10;;;;;;;;;;5059097;28;20040;-92
2022/08/03 10:53:36;;;;;;;0.00;0.00;;;;;;;;;;5075936;28;20062;-90
2022/08/03 10:58:51;;;;;;;0.00;0.00;;;;;;;;;;5075995;28;20516;-93
2022/08/03 11:01:19;;;;;;;0.00;0.00;;;;;;;;;;5047092;28;20107;-92
2022/08/03 11:03:52;;;;;;;0.00;0.00;;;;;;;;;;5058147;28;20040;-96
2022/08/03 11:06:19;;;;;;;0.10;0.10;;;;;;;;;;5048804;28;20036;-90
2022/08/03 11:08:49;;;;;;;0.10;0.10;;;;;;;;;;5059983;28;20047;-90
2022/08/03 11:11:19;;;;;;;0.00;0.00;;;;;;;;;;5064373;28;20100;-91
2022/08/03 11:14:06;;;;;;;0.00;0.00;;;;;;;;;;5055125;28;20044;-92
2022/08/03 11:16:34;;;;;;;0.10;0.10;;;;;;;;;;5056965;28;20398;-92
2022/08/03 11:19:01;;;;;;;0.00;0.00;;;;;;;;;;5051253;28;20505;-95
2022/08/03 11:21:46;;;;;;;0.10;0.10;;;;;;;;;;5055508;28;20040;-88
2022/08/03 11:24:12;;;;;;;;;;;;;;;;;;5074568;28;20497;-89
2022/08/03 11:26:38;;;;;;;0.00;0.00;;;;;;;;;;5065440;28;19923;-89
2022/08/03 11:32:42;;;;;;;0.00;0.00;;;;;;;;;;5093867;28;20035;-94
2022/08/03 11:35:08;;;;;;;0.10;0.10;;;;;;;;;;5055909;28;20079;-92
2022/08/03 11:37:35;;;;;;;0.05;0.05;;;;;;;;;;5039295;28;20036;-92
2022/08/03 11:40:01;;;;;;;0.00;0.00;;;;;;;;;;5042970;28;20123;-90
2022/08/03 11:42:28;;;;;;;0.10;0.10;;;;;;;;;;5048120;28;20037;-89
2022/08/03 11:44:58;;;;;;;0.15;0.15;;;;;;;;;;5063453;28;20044;-89
2022/08/03 11:47:26;;;;;;;0.00;0.00;;;;;;;;;;5062205;28;20096;-90
2022/08/03 11:49:57;;;;;;;0.00;0.00;;;;;;;;;;5077142;28;20067;-91
2022/08/03 11:52:43;;;;;;;0.00;0.00;;;;;;;;;;5073853;28;20063;-91
2022/08/03 11:55:10;;;;;;;0.08;0.08;;;;;;;;;;5063746;28;20404;-91
2022/08/03 11:57:37;;;;;;;0.00;0.00;;;;;;;;;;5061238;28;20036;-93
2022/08/03 12:00:19;;;;;;;0.00;0.00;;;;;;;;;;5061526;28;20047;-95
2022/08/03 12:03:07;;;;;;;0.00;0.00;;;;;;;;;;5060574;28;20168;-91
2022/08/03 12:05:33;;;;;;;0.00;0.00;;;;;;;;;;5068481;28;20049;-91
2022/08/03 12:07:59;;;;;;;0.10;0.10;;;;;;;;;;5049053;28;20071;-93
2022/08/03 12:10:25;;;;;;;0.10;0.10;;;;;;;;;;5050788;28;20040;-89
2022/08/03 12:12:56;;;;;;;0.10;0.10;;;;;;;;;;5063579;28;20044;-96
2022/08/03 12:15:26;;;;;;;0.00;0.00;;;;;;;;;;5039154;28;20037;-90
2022/08/03 12:17:52;;;;;;;0.00;0.00;;;;;;;;;;5053820;28;20045;-92
2022/08/03 12:20:22;;;;;;;0.10;0.10;;;;;;;;;;5057156;28;20040;-90
2022/08/03 12:22:48;;;;;;;0.10;0.10;;;;;;;;;;5057909;28;20090;-91
2022/08/03 12:25:25;;;;;;;0.00;0.00;;;;;;;;;;5055365;28;20040;-91
2022/08/03 12:27:54;;;;;;;0.10;0.10;;;;;;;;;;5060688;28;20044;-92
2022/08/03 12:30:20;;;;;;;0.00;0.00;;;;;;;;;;5064952;28;20484;-94
2022/08/03 12:32:46;;;;;;;0.00;0.00;;;;;;;;;;5045604;28;20569;-93
2022/08/03 12:35:23;;;;;;;0.10;0.10;;;;;;;;;;5053565;28;20489;-91
2022/08/03 12:37:50;;;;;;;0.10;0.10;;;;;;;;;;5064558;28;20035;-89
2022/08/03 12:40:34;;;;;;;0.00;0.00;;;;;;;;;;5063584;28;20040;-92
2022/08/03 12:43:02;;;;;;;0.10;0.10;;;;;;;;;;5061838;28;20075;-91
2022/08/03 12:45:33;;;;;;;0.10;0.10;;;;;;;;;;5058518;28;20488;-93
2022/08/03 12:48:00;;;;;;;0.10;0.10;;;;;;;;;;5064833;28;20046;-96
2022/08/03 12:50:30;;;;;;;0.10;0.10;;;;;;;;;;5051559;28;20047;-92
2022/08/03 12:52:57;;;;;;;0.00;0.00;;;;;;;;;;5083760;28;20123;-89
2022/08/03 12:55:32;;;;;;;0.10;0.10;;;;;;;;;;5063086;28;20036;-96
2022/08/03 12:57:58;;;;;;;0.05;0.05;;;;;;;;;;5066236;28;20039;-91
2022/08/03 13:00:54;;;;;;;0.00;0.00;;;;;;;;;;5064304;28;20516;-93
2022/08/03 13:03:20;;;;;;;0.00;0.00;;;;;;;;;;5068281;28;20067;-91
2022/08/03 13:05:46;;;;;;;0.00;0.00;;;;;;;;;;5064675;28;20040;-95
2022/08/03 13:08:23;;;;;;;0.05;0.05;;;;;;;;;;5063314;28;20496;-90
2022/08/03 13:10:55;;;;;;;0.10;0.10;;;;;;;;;;5045493;28;20052;-92
2022/08/03 13:13:46;;;;;;;0.10;0.10;;;;;;;;;;5043298;28;20048;-90
2022/08/03 13:16:12;;;;;;;0.10;0.10;;;;;;;;;;5067338;28;20040;-90
2022/08/03 13:18:39;;;;;;;0.00;0.00;;;;;;;;;;5067860;28;20039;-92
2022/08/03 13:21:06;;;;;;;0.00;0.00;;;;;;;;;;5086955;28;20036;-91
2022/08/03 13:23:36;;;;;;;0.65;0.65;;;;;;;;;;5085812;28;20100;-91
2022/08/03 13:26:02;;;;;;;0.00;0.00;;;;;;;;;;5061896;28;20410;-90
2022/08/03 13:28:28;;;;;;;0.00;0.00;;;;;;;;;;5064704;28;20040;-91
2022/08/03 13:31:09;;;;;;;0.00;0.00;;;;;;;;;;5069793;28;20051;-90
2022/08/03 13:33:37;;;;;;;0.10;0.10;;;;;;;;;;5071810;28;20130;-92
2022/08/03 13:36:05;;;;;;;0.05;0.05;;;;;;;;;;5057231;28;20103;-91
2022/08/03 13:38:31;;;;;;;0.10;0.10;;;;;;;;;;5074923;28;20037;-90
2022/08/03 13:40:58;;;;;;;0.10;0.10;;;;;;;;;;5079166;28;20078;-92
2022/08/03 13:43:24;;;;;;;0.00;0.00;;;;;;;;;;5057634;28;20047;-90
2022/08/03 13:45:50;;;;;;;0.08;0.08;;;;;;;;;;5059159;28;20556;-92
2022/08/03 13:48:16;;;;;;;0.00;0.00;;;;;;;;;;5066639;28;20050;-92
2022/08/03 13:50:42;;;;;;;0.10;0.10;;;;;;;;;;5082904;28;20040;-89
2022/08/03 13:53:08;;;;;;;0.10;0.10;;;;;;;;;;5068021;28;20099;-89
2022/08/03 13:55:34;;;;;;;0.10;0.10;;;;;;;;;;5065589;28;20040;-91
2022/08/03 13:58:00;;;;;;;0.00;0.00;;;;;;;;;;5069486;28;20032;-90
2022/08/03 14:00:26;;;;;;;0.10;0.10;;;;;;;;;;5069599;28;20040;-89
2022/08/03 14:02:52;;;;;;;0.05;0.05;;;;;;;;;;5069771;28;20043;-90
2022/08/03 14:05:18;;;;;;;0.03;0.03;;;;;;;;;;5086685;28;20047;-91
2022/08/03 14:07:48;;;;;;;0.10;0.10;;;;;;;;;;5069326;28;20075;-90
2022/08/03 14:10:14;;;;;;;0.00;0.00;;;;;;;;;;5053224;28;20040;-90
2022/08/03 14:12:40;;;;;;;0.10;0.10;;;;;;;;;;5069562;28;20123;-90
2022/08/03 14:15:08;;;;;;;1.15;1.08;;;;;;;;;;5067260;28;20047;-92
2022/08/03 14:17:34;;;;;;;0.10;0.10;;;;;;;;;;5086394;28;20036;-90
2022/08/03 14:20:03;;;;;;;0.00;0.00;;;;;;;;;;5063156;28;20039;-91
2022/08/03 14:22:30;;;;;;;0.00;0.00;;;;;;;;;;5067840;28;20124;-90
2022/08/03 14:24:56;;;;;;;0.00;0.00;;;;;;;;;;5065788;28;20089;-92
2022/08/03 14:27:22;;;;;;;0.00;0.00;;;;;;;;;;5068416;28;20043;-90
2022/08/03 14:29:48;;;;;;;0.08;0.08;;;;;;;;;;5066210;28;20071;-90
2022/08/03 14:32:16;;;;;;;0.10;0.10;;;;;;;;;;5066919;28;20400;-92
2022/08/03 14:34:42;;;;;;;0.10;0.10;;;;;;;;;;5041787;28;20064;-95
2022/08/03 14:37:08;;;;;;;0.10;0.10;;;;;;;;;;5060682;28;20122;-90
2022/08/03 14:39:34;;;;;;;0.00;0.00;;;;;;;;;;5054247;28;20036;-91
2022/08/03 14:42:00;;;;;;;0.10;0.10;;;;;;;;;;5066085;28;20070;-92
2022/08/03 14:44:28;;;;;;;0.00;0.00;;;;;;;;;;5041826;28;20059;-94
2022/08/03 14:46:54;;;;;;;0.10;0.10;;;;;;;;;;5060125;28;20109;-93
2022/08/03 14:49:20;;;;;;;0.00;0.00;;;;;;;;;;5061069;28;20028;-89
2022/08/03 14:51:46;;;;;;;0.00;0.00;;;;;;;;;;5055350;28;20040;-89
2022/08/03 14:54:12;;;;;;;0.00;0.00;;;;;;;;;;5061473;28;20401;-88
2022/08/03 14:56:38;;;;;;;0.10;0.10;;;;;;;;;;5062347;28;20036;-89
2022/08/03 14:59:27;;;;;;;0.00;0.00;;;;;;;;;;5062493;28;20036;-93
2022/08/03 15:01:54;;;;;;;17.98;15.10;;;;;;;;;;5059464;28;20036;-91